Time;durP1;ratioP1;P1;durP2;ratioP2;P2;SDS_P1;SDS_P2;PMS_P1;PMS_P2;Temp;Humidity;BMP_temperature;BMP_pressure;BME280_temperature;BME280_humidity;BME280_pressure;Samples;Min_cycle;Max_cycle;Signal;HPM_P1;HPM_P2
2023/07/28 00:00:57;;;;;;;38.40;13.60;;;17.90;99.90;;;;;;5052342;28;20048;-76
2023/07/28 00:03:44;;;;;;;48.00;13.80;;;17.90;99.90;;;;;;5051895;28;20416;-76
2023/07/28 00:06:30;;;;;;;51.35;13.20;;;17.90;99.90;;;;;;5051328;28;20049;-74
2023/07/28 00:09:16;;;;;;;47.22;12.90;;;17.90;99.90;;;;;;5052112;28;20088;-73
2023/07/28 00:12:02;;;;;;;41.22;12.18;;;17.90;99.90;;;;;;5051330;28;20130;-73
2023/07/28 00:14:48;;;;;;;44.65;13.20;;;17.90;99.90;;;;;;5051639;28;20122;-73
2023/07/28 00:17:34;;;;;;;45.80;12.38;;;17.90;99.90;;;;;;5051220;28;20496;-74
2023/07/28 00:20:20;;;;;;;54.53;12.60;;;17.90;99.90;;;;;;5051554;28;20408;-74
2023/07/28 00:23:07;;;;;;;42.30;11.65;;;17.90;99.90;;;;;;5033153;28;20045;-74
2023/07/28 00:25:53;;;;;;;42.35;12.23;;;17.90;99.90;;;;;;5051622;28;20045;-73
2023/07/28 00:28:39;;;;;;;39.80;11.90;;;17.90;99.90;;;;;;5051430;28;20083;-77
2023/07/28 00:31:25;;;;;;;35.35;11.27;;;17.90;99.90;;;;;;5051164;28;20052;-76
2023/07/28 00:34:11;;;;;;;48.10;12.82;;;17.90;99.90;;;;;;5051371;28;20053;-76
2023/07/28 00:36:57;;;;;;;42.78;12.90;;;17.90;99.90;;;;;;5051407;28;20044;-75
2023/07/28 00:39:43;;;;;;;44.10;13.85;;;17.90;99.90;;;;;;5051502;28;20048;-76
2023/07/28 00:42:29;;;;;;;44.42;12.55;;;17.90;99.90;;;;;;5051361;28;20055;-76
2023/07/28 00:45:16;;;;;;;43.50;12.18;;;17.90;99.90;;;;;;5051201;28;20055;-75
2023/07/28 00:48:04;;;;;;;40.10;12.15;;;17.90;99.90;;;;;;5051061;28;20479;-76
2023/07/28 00:50:51;;;;;;;35.00;12.38;;;17.90;99.90;;;;;;5050814;28;20555;-75
2023/07/28 00:53:37;;;;;;;48.28;11.70;;;17.90;99.90;;;;;;5050098;28;20045;-76
2023/07/28 00:56:23;;;;;;;43.88;12.65;;;17.90;99.90;;;;;;5050931;28;20049;-75
2023/07/28 00:59:09;;;;;;;34.45;11.77;;;17.90;99.90;;;;;;5050600;28;20045;-75
2023/07/28 01:01:55;;;;;;;54.10;15.25;;;17.90;99.90;;;;;;5033127;28;20090;-75
2023/07/28 01:04:41;;;;;;;48.72;13.07;;;17.90;99.90;;;;;;5050808;28;20052;-76
2023/07/28 01:07:31;;;;;;;52.13;14.80;;;17.90;99.90;;;;;;5050367;28;20060;-76
2023/07/28 01:10:21;;;;;;;51.00;13.07;;;17.90;99.90;;;;;;5032663;28;20045;-76
2023/07/28 01:13:07;;;;;;;45.55;14.40;;;17.90;99.90;;;;;;5050698;28;20045;-76
2023/07/28 01:15:53;;;;;;;60.78;16.33;;;17.90;99.90;;;;;;5050639;28;20065;-76
2023/07/28 01:18:39;;;;;;;37.75;13.73;;;17.90;99.90;;;;;;5032893;28;20067;-75
2023/07/28 01:21:28;;;;;;;48.13;14.90;;;17.90;99.90;;;;;;5050199;28;20049;-75
2023/07/28 01:24:27;;;;;;;37.70;12.63;;;17.90;99.90;;;;;;5050568;28;20570;-75
2023/07/28 01:27:14;;;;;;;55.67;14.90;;;17.90;99.90;;;;;;5050834;28;20041;-75
2023/07/28 01:30:00;;;;;;;47.25;14.07;;;17.90;99.90;;;;;;5050755;28;20055;-76
2023/07/28 01:32:47;;;;;;;46.47;14.88;;;17.90;99.90;;;;;;5037047;28;20111;-75
2023/07/28 01:35:35;;;;;;;49.33;15.07;;;17.90;99.90;;;;;;5052502;28;20048;-75
2023/07/28 01:38:22;;;;;;;51.38;14.95;;;17.90;99.90;;;;;;5054646;28;20048;-75
2023/07/28 01:41:08;;;;;;;53.22;15.27;;;17.90;99.90;;;;;;5054700;28;20053;-74
2023/07/28 01:43:55;;;;;;;54.05;15.95;;;17.90;99.90;;;;;;5053699;28;20049;-74
2023/07/28 01:46:41;;;;;;;50.15;13.65;;;17.90;99.90;;;;;;5054421;28;20128;-75
2023/07/28 01:49:27;;;;;;;59.33;16.33;;;17.90;99.90;;;;;;5053996;28;20141;-75
2023/07/28 01:52:13;;;;;;;50.72;13.75;;;17.90;99.90;;;;;;5040681;28;20110;-75
2023/07/28 01:55:00;;;;;;;55.40;14.90;;;17.90;99.90;;;;;;5054440;28;20057;-74
2023/07/28 01:57:59;;;;;;;53.47;16.00;;;17.90;99.90;;;;;;5054688;28;20132;-76
2023/07/28 02:00:46;;;;;;;62.42;16.75;;;17.90;99.90;;;;;;5036182;28;20096;-75
2023/07/28 02:03:32;;;;;;;65.05;15.95;;;17.90;99.90;;;;;;5053658;28;20088;-75
2023/07/28 02:06:18;;;;;;;54.42;16.13;;;17.90;99.90;;;;;;5053992;28;20076;-75
2023/07/28 02:09:04;;;;;;;60.75;15.65;;;17.90;99.90;;;;;;5036021;28;20063;-75
2023/07/28 02:11:50;;;;;;;51.58;15.75;;;17.90;99.90;;;;;;5053730;28;20045;-75
2023/07/28 02:14:36;;;;;;;64.72;17.85;;;17.90;99.90;;;;;;5040224;28;20052;-75
2023/07/28 02:17:22;;;;;;;59.40;16.00;;;17.90;99.90;;;;;;5054113;28;20073;-75
2023/07/28 02:20:12;;;;;;;64.53;15.93;;;17.90;99.90;;;;;;5035516;28;20132;-75
2023/07/28 02:22:58;;;;;;;58.55;17.50;;;17.90;99.90;;;;;;5053191;28;20167;-75
2023/07/28 02:25:45;;;;;;;55.83;15.05;;;17.90;99.90;;;;;;5053900;28;20048;-75
2023/07/28 02:28:31;;;;;;;64.35;16.05;;;17.90;99.90;;;;;;5053203;28;20057;-75
2023/07/28 02:31:18;;;;;;;55.05;15.80;;;17.90;99.90;;;;;;5040465;28;20159;-75
2023/07/28 02:34:04;;;;;;;51.63;16.27;;;17.90;99.90;;;;;;5054390;28;20135;-75
2023/07/28 02:36:50;;;;;;;51.63;15.27;;;17.90;99.90;;;;;;5053128;28;20065;-75
2023/07/28 02:39:36;;;;;;;54.45;15.05;;;17.90;99.90;;;;;;5053877;28;20064;-76
2023/07/28 02:42:23;;;;;;;55.08;14.20;;;17.90;99.90;;;;;;5052853;28;20096;-76
2023/07/28 02:45:10;;;;;;;46.95;13.75;;;17.90;99.90;;;;;;5052875;28;20048;-76
2023/07/28 02:47:56;;;;;;;50.67;14.88;;;17.90;99.90;;;;;;5053196;28;20052;-76
2023/07/28 02:50:46;;;;;;;36.05;13.30;;;17.90;99.90;;;;;;5053049;28;20465;-75
2023/07/28 02:53:32;;;;;;;44.80;14.85;;;17.90;99.90;;;;;;5053325;28;20064;-75
2023/07/28 02:56:20;;;;;;;48.20;14.85;;;17.90;99.90;;;;;;5039556;28;20049;-75
2023/07/28 02:59:06;;;;;;;48.38;14.15;;;17.90;99.90;;;;;;5035176;28;20480;-76
2023/07/28 03:01:52;;;;;;;47.97;13.55;;;17.90;99.90;;;;;;5035235;28;20135;-75
2023/07/28 03:04:38;;;;;;;48.10;15.13;;;17.90;99.90;;;;;;5052595;28;20049;-76
2023/07/28 03:07:24;;;;;;;35.15;11.68;;;17.90;99.90;;;;;;5052572;28;20575;-76
2023/07/28 03:10:16;;;;;;;38.13;12.40;;;17.90;99.90;;;;;;5052888;28;20131;-76
2023/07/28 03:13:02;;;;;;;46.65;13.13;;;17.90;99.90;;;;;;5052456;28;20052;-75
2023/07/28 03:15:48;;;;;;;43.17;13.25;;;17.90;99.90;;;;;;5052660;28;20088;-74
2023/07/28 03:18:34;;;;;;;38.55;12.38;;;17.90;99.90;;;;;;5052049;28;20136;-76
2023/07/28 03:21:20;;;;;;;38.03;12.60;;;17.90;99.90;;;;;;5052502;28;20044;-76
2023/07/28 03:24:06;;;;;;;49.13;13.68;;;17.90;99.90;;;;;;5052216;28;20060;-76
2023/07/28 03:26:52;;;;;;;56.95;13.32;;;17.90;99.90;;;;;;5052031;28;20496;-75
2023/07/28 03:29:38;;;;;;;42.30;12.27;;;17.90;99.90;;;;;;5052490;28;20051;-76
2023/07/28 03:32:24;;;;;;;39.13;12.15;;;17.90;99.90;;;;;;5052236;28;20044;-75
2023/07/28 03:35:11;;;;;;;44.45;12.80;;;17.80;99.90;;;;;;5038248;28;20052;-75
2023/07/28 03:37:57;;;;;;;36.33;11.93;;;17.80;99.90;;;;;;5052932;28;20057;-74
2023/07/28 03:40:43;;;;;;;39.10;11.13;;;17.80;99.90;;;;;;5051942;28;20504;-76
2023/07/28 03:43:29;;;;;;;47.88;12.73;;;17.90;99.90;;;;;;5052201;28;20053;-76
2023/07/28 03:46:16;;;;;;;39.28;12.07;;;17.80;99.90;;;;;;5051566;28;20049;-76
2023/07/28 03:49:02;;;;;;;40.00;11.57;;;17.90;99.90;;;;;;5052227;28;20056;-76
2023/07/28 03:51:48;;;;;;;33.28;11.95;;;17.80;99.90;;;;;;5052267;28;20135;-75
2023/07/28 03:54:34;;;;;;;46.13;12.07;;;17.90;99.90;;;;;;5034604;28;20296;-76
2023/07/28 03:57:20;;;;;;;40.05;10.68;;;17.80;99.90;;;;;;5051683;28;20100;-77
2023/07/28 04:00:07;;;;;;;37.67;11.95;;;17.80;99.90;;;;;;5051171;28;20051;-75
2023/07/28 04:02:53;;;;;;;33.78;11.25;;;17.80;99.90;;;;;;5051675;28;20508;-77
2023/07/28 04:05:39;;;;;;;40.78;10.82;;;17.80;99.90;;;;;;5051598;28;20596;-76
2023/07/28 04:08:25;;;;;;;35.83;12.13;;;17.80;99.90;;;;;;5051366;28;20470;-75
2023/07/28 04:11:11;;;;;;;32.90;11.88;;;17.80;99.90;;;;;;5033837;28;20055;-75
2023/07/28 04:13:57;;;;;;;32.45;9.38;;;17.80;99.90;;;;;;5020714;28;20060;-76
2023/07/28 04:16:43;;;;;;;38.22;10.82;;;17.80;99.90;;;;;;5051032;28;20049;-75
2023/07/28 04:19:29;;;;;;;33.72;10.75;;;17.80;99.90;;;;;;5050903;28;20048;-76
2023/07/28 04:22:21;;;;;;;42.15;11.48;;;17.80;99.90;;;;;;5051472;28;20064;-75
2023/07/28 04:25:07;;;;;;;36.67;11.30;;;17.80;99.90;;;;;;5051593;28;20055;-76
2023/07/28 04:27:54;;;;;;;39.78;12.60;;;17.80;99.90;;;;;;5051448;28;20111;-75
2023/07/28 04:30:40;;;;;;;35.30;11.82;;;17.80;99.90;;;;;;5051273;28;20088;-75
2023/07/28 04:33:26;;;;;;;37.58;12.20;;;17.80;99.90;;;;;;5051366;28;20059;-75
2023/07/28 04:36:12;;;;;;;34.92;11.32;;;17.80;99.90;;;;;;5051362;28;20048;-75
2023/07/28 04:38:58;;;;;;;45.75;13.82;;;17.80;99.90;;;;;;5036931;28;20087;-74
2023/07/28 04:41:44;;;;;;;32.13;12.68;;;17.80;99.90;;;;;;5051839;28;20055;-75
2023/07/28 04:44:31;;;;;;;30.20;10.45;;;17.80;99.90;;;;;;5050568;28;20056;-75
2023/07/28 04:47:17;;;;;;;30.08;11.85;;;17.80;99.90;;;;;;5051051;28;20053;-75
2023/07/28 04:50:03;;;;;;;34.97;13.32;;;17.80;99.90;;;;;;5051095;28;20098;-75
2023/07/28 04:52:49;;;;;;;33.58;13.15;;;17.80;99.90;;;;;;5051139;28;20049;-75
2023/07/28 04:55:36;;;;;;;30.00;14.10;;;17.80;99.90;;;;;;5050954;28;20393;-75
2023/07/28 04:58:22;;;;;;;37.53;15.63;;;17.80;99.90;;;;;;5036906;28;20576;-74
2023/07/28 05:01:09;;;;;;;33.10;13.02;;;17.90;99.90;;;;;;5033556;28;20518;-75
2023/07/28 05:03:55;;;;;;;38.30;16.38;;;17.90;99.90;;;;;;5049988;28;20497;-75
2023/07/28 05:06:41;;;;;;;36.83;15.48;;;17.90;99.90;;;;;;5050191;28;20124;-75
2023/07/28 05:09:28;;;;;;;35.08;18.17;;;17.90;99.90;;;;;;5050725;28;20049;-74
2023/07/28 05:12:14;;;;;;;43.67;15.73;;;17.90;99.90;;;;;;5056334;28;20136;-75
2023/07/28 05:15:00;;;;;;;31.08;14.63;;;17.90;99.90;;;;;;5057318;28;20088;-76
2023/07/28 05:17:46;;;;;;;41.08;14.85;;;18.00;99.90;;;;;;5039229;28;20052;-74
2023/07/28 05:20:32;;;;;;;26.65;12.95;;;18.00;99.90;;;;;;5057182;28;20048;-74
2023/07/28 05:23:18;;;;;;;26.50;12.90;;;18.10;99.90;;;;;;5057198;28;20057;-76
2023/07/28 05:26:04;;;;;;;27.80;14.02;;;18.10;99.90;;;;;;5058086;28;20076;-76
2023/07/28 05:28:50;;;;;;;24.92;13.20;;;18.10;99.90;;;;;;5057303;28;20527;-74
2023/07/28 05:31:36;;;;;;;24.38;11.70;;;18.10;99.90;;;;;;5057270;28;20041;-75
2023/07/28 05:34:23;;;;;;;21.65;12.48;;;18.10;99.90;;;;;;5057172;28;20044;-74
2023/07/28 05:37:09;;;;;;;24.80;13.25;;;18.10;99.90;;;;;;5043620;28;20044;-74
2023/07/28 05:39:56;;;;;;;20.98;12.65;;;18.10;99.90;;;;;;5057365;28;20040;-75
2023/07/28 05:42:42;;;;;;;33.03;10.93;;;18.10;99.90;;;;;;5040511;28;20119;-74
2023/07/28 05:45:28;;;;;;;18.00;10.32;;;18.20;99.90;;;;;;5057591;28;20045;-75
2023/07/28 05:48:14;;;;;;;19.90;11.32;;;18.20;99.90;;;;;;5057354;28;20454;-74
2023/07/28 05:51:00;;;;;;;17.80;9.98;;;18.20;99.90;;;;;;5056804;28;20064;-74
2023/07/28 05:53:47;;;;;;;15.05;9.60;;;18.30;99.90;;;;;;5057131;28;20114;-75
2023/07/28 05:56:33;;;;;;;23.23;10.32;;;18.30;99.90;;;;;;5056793;28;20135;-75
2023/07/28 05:59:19;;;;;;;17.60;9.52;;;18.30;99.90;;;;;;5057433;28;20053;-75
2023/07/28 06:02:06;;;;;;;15.93;9.02;;;18.30;99.90;;;;;;5056653;28;20052;-74
2023/07/28 06:04:53;;;;;;;19.30;9.10;;;18.30;99.90;;;;;;5057091;28;20132;-75
2023/07/28 06:08:04;;;;;;;15.20;8.85;;;18.40;99.90;;;;;;5056959;28;20045;-75
2023/07/28 06:10:50;;;;;;;14.40;9.02;;;18.50;99.90;;;;;;5056685;28;20565;-75
2023/07/28 06:13:36;;;;;;;16.77;8.88;;;18.50;99.90;;;;;;5056607;28;20136;-74
2023/07/28 06:16:22;;;;;;;14.70;8.85;;;18.50;99.90;;;;;;5056588;28;20132;-75
2023/07/28 06:19:09;;;;;;;13.10;8.18;;;18.50;99.90;;;;;;5056947;28;20455;-75
2023/07/28 06:21:56;;;;;;;14.90;9.02;;;18.50;99.90;;;;;;5036387;28;20514;-75
2023/07/28 06:24:42;;;;;;;13.13;8.45;;;18.60;99.90;;;;;;5054146;28;20049;-75
2023/07/28 06:27:29;;;;;;;15.40;8.02;;;18.60;99.90;;;;;;5053052;28;20051;-76
2023/07/28 06:30:15;;;;;;;12.90;8.07;;;18.70;99.90;;;;;;5054215;28;20143;-76
2023/07/28 06:33:03;;;;;;;17.02;8.52;;;18.70;99.90;;;;;;5035126;28;20064;-75
2023/07/28 06:35:49;;;;;;;14.65;9.05;;;18.70;99.90;;;;;;5053202;28;20135;-75
2023/07/28 06:38:35;;;;;;;12.90;8.50;;;18.80;99.90;;;;;;5054085;28;20079;-75
2023/07/28 06:41:22;;;;;;;13.85;8.35;;;18.80;99.90;;;;;;5052732;28;20140;-75
2023/07/28 06:44:08;;;;;;;13.48;7.75;;;18.80;99.90;;;;;;5052904;28;20417;-75
2023/07/28 06:46:54;;;;;;;14.30;8.20;;;18.80;99.90;;;;;;5053335;28;20049;-75
2023/07/28 06:49:40;;;;;;;16.15;8.80;;;18.80;99.90;;;;;;5034882;28;20057;-75
2023/07/28 06:52:26;;;;;;;17.02;8.45;;;18.80;99.90;;;;;;5053073;28;20048;-76
2023/07/28 06:55:12;;;;;;;12.13;7.47;;;18.80;99.90;;;;;;5037763;28;20493;-75
2023/07/28 06:57:59;;;;;;;17.15;7.50;;;18.90;99.90;;;;;;5038699;28;20068;-75
2023/07/28 07:00:45;;;;;;;10.00;6.18;;;19.10;99.90;;;;;;5037546;28;20453;-78
2023/07/28 07:03:31;;;;;;;14.10;8.32;;;19.20;99.90;;;;;;5053476;28;20408;-75
2023/07/28 07:06:17;;;;;;;17.55;9.57;;;19.10;99.90;;;;;;5052959;28;20088;-74
2023/07/28 07:09:05;;;;;;;14.23;8.05;;;19.10;99.90;;;;;;5053143;28;20060;-79
2023/07/28 07:11:51;;;;;;;11.20;6.60;;;19.10;99.90;;;;;;5053211;28;20527;-79
2023/07/28 07:14:37;;;;;;;12.23;7.00;;;19.20;99.90;;;;;;5038265;28;20057;-75
2023/07/28 07:17:23;;;;;;;11.23;6.78;;;19.30;99.90;;;;;;5033853;28;20053;-75
2023/07/28 07:20:10;;;;;;;14.23;7.68;;;19.40;99.90;;;;;;5052547;28;20319;-75
2023/07/28 07:22:59;;;;;;;11.52;6.63;;;19.40;99.90;;;;;;5052204;28;20190;-77
2023/07/28 07:25:48;;;;;;;10.35;6.13;;;19.30;99.90;;;;;;5053150;28;20067;-76
2023/07/28 07:28:35;;;;;;;21.00;6.97;;;19.30;99.90;;;;;;5052530;28;20095;-76
2023/07/28 07:31:21;;;;;;;12.00;8.10;;;19.20;99.90;;;;;;5052815;28;20570;-76
2023/07/28 07:34:07;;;;;;;12.00;7.20;;;19.30;99.90;;;;;;5052890;28;20160;-78
2023/07/28 07:36:53;;;;;;;10.60;6.93;;;19.30;99.90;;;;;;5052857;28;20099;-77
2023/07/28 07:39:41;;;;;;;13.52;6.90;;;19.30;99.90;;;;;;5052833;28;20045;-75
2023/07/28 07:42:41;;;;;;;12.02;7.07;;;19.30;99.90;;;;;;5053220;28;20403;-80
2023/07/28 07:45:27;;;;;;;11.55;8.15;;;19.30;99.90;;;;;;5052783;28;20045;-73
2023/07/28 07:48:13;;;;;;;13.63;6.82;;;19.20;99.90;;;;;;5036590;28;20140;-77
2023/07/28 07:51:00;;;;;;;10.65;6.65;;;19.30;99.90;;;;;;5052550;28;20087;-76
2023/07/28 07:53:46;;;;;;;11.82;6.68;;;19.40;99.90;;;;;;5037545;28;20049;-77
2023/07/28 07:56:32;;;;;;;11.35;6.75;;;19.50;99.90;;;;;;5053198;28;20045;-75
2023/07/28 07:59:19;;;;;;;12.40;7.45;;;19.50;99.90;;;;;;5051650;28;20044;-79
2023/07/28 08:02:05;;;;;;;12.32;7.13;;;19.50;99.90;;;;;;5038282;28;20053;-76
2023/07/28 08:04:55;;;;;;;8.15;5.25;;;19.40;99.90;;;;;;5052831;28;20052;-77
2023/07/28 08:07:44;;;;;;;9.52;5.07;;;19.30;99.90;;;;;;5038520;28;20560;-76
2023/07/28 08:10:31;;;;;;;7.15;4.80;;;19.20;99.90;;;;;;5051020;28;20503;-76
2023/07/28 08:13:17;;;;;;;6.93;4.13;;;19.30;99.90;;;;;;5038127;28;20114;-76
2023/07/28 08:16:03;;;;;;;7.53;4.85;;;19.30;99.90;;;;;;5051032;28;20076;-74
2023/07/28 08:18:49;;;;;;;7.47;4.97;;;19.30;99.90;;;;;;5041759;28;20114;-78
2023/07/28 08:21:36;;;;;;;7.32;4.85;;;19.30;99.90;;;;;;5024399;28;20053;-76
2023/07/28 08:24:22;;;;;;;6.68;4.47;;;19.40;99.90;;;;;;5051674;28;20404;-76
2023/07/28 08:27:08;;;;;;;7.93;5.47;;;19.40;99.90;;;;;;5050908;28;20400;-76
2023/07/28 08:29:54;;;;;;;9.15;5.18;;;19.60;99.90;;;;;;5050494;28;20052;-75
2023/07/28 08:32:41;;;;;;;7.43;5.18;;;19.80;99.90;;;;;;5051908;28;20049;-74
2023/07/28 08:35:27;;;;;;;8.73;5.47;;;19.90;99.90;;;;;;5051561;28;20061;-75
2023/07/28 08:38:14;;;;;;;6.25;4.05;;;20.00;99.90;;;;;;5049940;28;20053;-75
2023/07/28 08:41:00;;;;;;;7.15;4.15;;;19.90;99.90;;;;;;5050924;28;20531;-77
2023/07/28 08:43:46;;;;;;;9.63;5.28;;;19.80;99.90;;;;;;5050747;28;20128;-77
2023/07/28 08:46:34;;;;;;;7.20;4.30;;;19.70;99.90;;;;;;5049363;28;20114;-74
2023/07/28 08:49:21;;;;;;;7.65;3.72;;;19.70;99.90;;;;;;5051103;28;20119;-76
2023/07/28 08:52:07;;;;;;;4.95;3.05;;;19.70;99.90;;;;;;5051152;28;20053;-75
2023/07/28 08:54:53;;;;;;;6.25;2.80;;;19.70;99.90;;;;;;5036129;28;20049;-75
2023/07/28 08:57:39;;;;;;;6.68;3.50;;;19.80;99.90;;;;;;5050738;28;20485;-75
2023/07/28 09:00:26;;;;;;;6.53;4.05;;;19.90;99.90;;;;;;5050362;28;20041;-76
2023/07/28 09:03:12;;;;;;;6.63;3.17;;;19.90;99.90;;;;;;5050498;28;20135;-76
2023/07/28 09:06:01;;;;;;;5.72;3.28;;;20.00;99.90;;;;;;5051831;28;20044;-76
2023/07/28 09:08:47;;;;;;;7.43;4.32;;;20.00;99.90;;;;;;5049264;28;20063;-75
2023/07/28 09:11:33;;;;;;;6.60;3.90;;;20.20;99.90;;;;;;5050418;28;20078;-76
2023/07/28 09:14:20;;;;;;;5.22;3.53;;;20.30;99.90;;;;;;5051487;28;20088;-75
2023/07/28 09:17:08;;;;;;;6.20;3.80;;;20.40;99.90;;;;;;5049584;28;20063;-76
2023/07/28 09:19:55;;;;;;;7.07;3.88;;;20.50;99.90;;;;;;5019692;28;20136;-75
2023/07/28 09:22:45;;;;;;;5.10;3.67;;;20.70;99.90;;;;;;5032148;28;20485;-75
2023/07/28 09:25:32;;;;;;;8.40;4.97;;;20.70;99.90;;;;;;5050449;28;20060;-75
2023/07/28 09:28:18;;;;;;;7.18;5.05;;;20.80;99.90;;;;;;5033249;28;20061;-76
2023/07/28 09:31:05;;;;;;;7.00;3.95;;;20.70;99.90;;;;;;5050582;28;20049;-75
2023/07/28 09:33:51;;;;;;;8.35;4.78;;;20.70;99.90;;;;;;5050679;28;20048;-76
2023/07/28 09:36:41;;;;;;;8.23;4.97;;;20.60;99.90;;;;;;5050641;28;20048;-76
2023/07/28 09:39:27;;;;;;;7.97;5.32;;;20.70;99.90;;;;;;5049967;28;20473;-76
2023/07/28 09:42:14;;;;;;;8.93;5.10;;;20.70;99.90;;;;;;5050447;28;20056;-76
2023/07/28 09:45:00;;;;;;;7.90;3.90;;;20.70;99.90;;;;;;5050419;28;20057;-76
2023/07/28 09:47:48;;;;;;;6.65;3.83;;;20.80;99.90;;;;;;5050364;28;20214;-76
2023/07/28 09:50:38;;;;;;;5.68;4.38;;;20.70;99.90;;;;;;5033219;28;20053;-75
2023/07/28 09:53:28;;;;;;;6.88;4.32;;;20.70;99.90;;;;;;5051095;28;20103;-75
2023/07/28 09:56:19;;;;;;;6.05;4.32;;;20.60;99.90;;;;;;5032480;28;20053;-75
2023/07/28 09:59:12;;;;;;;5.47;3.92;;;20.50;99.90;;;;;;5054658;28;20057;-75
2023/07/28 10:02:00;;;;;;;7.93;6.35;;;20.60;99.90;;;;;;5054496;28;20107;-75
2023/07/28 10:04:46;;;;;;;9.35;7.22;;;20.60;99.90;;;;;;5035753;28;20139;-75
2023/07/28 10:07:38;;;;;;;8.88;7.15;;;20.50;99.90;;;;;;5054710;28;20106;-75
2023/07/28 10:10:26;;;;;;;11.25;8.30;;;20.50;99.90;;;;;;5053867;28;20037;-75
2023/07/28 10:13:21;;;;;;;9.95;7.88;;;20.50;99.90;;;;;;5036401;28;20055;-75
2023/07/28 10:16:09;;;;;;;8.47;5.83;;;20.50;99.90;;;;;;5053948;28;20056;-75
2023/07/28 10:18:55;;;;;;;8.20;4.95;;;20.60;99.90;;;;;;5053535;28;20315;-76
2023/07/28 10:21:42;;;;;;;6.18;4.50;;;20.60;99.90;;;;;;5053754;28;20045;-76
2023/07/28 10:24:58;;;;;;;7.40;3.60;;;20.80;99.90;;;;;;5022425;28;20044;-75
2023/07/28 10:27:46;;;;;;;6.25;3.22;;;21.00;99.90;;;;;;5053673;28;20049;-76
2023/07/28 10:30:38;;;;;;;5.13;2.80;;;21.20;99.90;;;;;;5035512;28;20060;-76
2023/07/28 10:33:33;;;;;;;4.85;2.85;;;21.40;99.90;;;;;;5053421;28;20480;-75
2023/07/28 10:36:22;;;;;;;4.72;2.70;;;21.60;99.90;;;;;;5040063;28;20045;-76
2023/07/28 10:39:19;;;;;;;5.60;3.03;;;21.70;99.90;;;;;;5053426;28;20091;-76
2023/07/28 10:42:09;;;;;;;4.85;2.80;;;22.00;99.90;;;;;;5055016;28;20098;-76
2023/07/28 10:44:55;;;;;;;4.57;2.58;;;22.20;99.90;;;;;;5022073;28;20041;-75
2023/07/28 10:47:41;;;;;;;3.80;2.63;;;22.60;99.90;;;;;;5035859;28;20049;-77
2023/07/28 10:50:29;;;;;;;3.50;2.17;;;23.00;99.90;;;;;;5035948;28;20560;-76
2023/07/28 10:53:15;;;;;;;4.97;2.60;;;23.30;99.90;;;;;;5053055;28;20416;-76
2023/07/28 10:56:03;;;;;;;4.57;2.85;;;23.20;99.90;;;;;;5053238;28;20051;-76
2023/07/28 10:58:57;;;;;;;5.63;2.65;;;23.30;99.90;;;;;;5053304;28;20053;-75
2023/07/28 11:01:44;;;;;;;5.30;3.53;;;23.30;99.90;;;;;;5035786;28;20049;-76
2023/07/28 11:04:30;;;;;;;5.03;3.40;;;23.50;99.90;;;;;;5052896;28;20280;-76
2023/07/28 11:07:16;;;;;;;5.57;3.78;;;23.90;99.90;;;;;;5052821;28;20107;-76
2023/07/28 11:10:03;;;;;;;5.70;3.72;;;24.30;99.90;;;;;;5053154;28;20045;-76
2023/07/28 11:12:51;;;;;;;6.65;4.35;;;24.00;99.90;;;;;;5052555;28;20044;-76
2023/07/28 11:15:38;;;;;;;7.13;3.33;;;24.10;99.90;;;;;;5052616;28;20579;-77
2023/07/28 11:18:26;;;;;;;5.63;4.00;;;23.90;99.90;;;;;;5052756;28;20156;-76
2023/07/28 11:21:12;;;;;;;5.28;3.38;;;24.00;99.90;;;;;;5052893;28;20475;-77
2023/07/28 11:23:58;;;;;;;6.40;4.25;;;23.90;99.90;;;;;;5033867;28;20060;-76
2023/07/28 11:26:45;;;;;;;7.32;4.60;;;24.40;99.90;;;;;;5052600;28;20045;-76
2023/07/28 11:29:32;;;;;;;6.22;4.25;;;24.80;99.90;;;;;;5052480;28;20084;-76
2023/07/28 11:32:18;;;;;;;6.30;4.53;;;25.00;99.90;;;;;;5036896;28;20049;-76
2023/07/28 11:35:11;;;;;;;7.18;4.38;;;25.30;99.90;;;;;;5035369;28;20055;-76
2023/07/28 11:37:58;;;;;;;6.22;4.47;;;25.30;99.90;;;;;;5034284;28;20379;-77
2023/07/28 11:40:44;;;;;;;7.07;4.65;;;25.40;99.90;;;;;;5034966;28;20052;-76
2023/07/28 11:43:31;;;;;;;6.32;4.10;;;25.40;99.90;;;;;;5052320;28;20057;-77
2023/07/28 11:46:37;;;;;;;6.85;4.38;;;25.80;99.90;;;;;;5038195;28;20106;-76
2023/07/28 11:49:23;;;;;;;7.93;4.82;;;26.10;99.90;;;;;;5034676;28;20049;-77
2023/07/28 11:52:11;;;;;;;6.25;4.70;;;25.90;99.90;;;;;;5052109;28;20052;-77
2023/07/28 11:54:59;;;;;;;7.85;5.30;;;25.80;99.90;;;;;;5051835;28;20475;-76
2023/07/28 11:57:45;;;;;;;5.25;3.55;;;25.60;99.90;;;;;;5033987;28;20457;-77
2023/07/28 12:00:36;;;;;;;7.07;4.32;;;25.50;99.90;;;;;;5051894;28;20435;-77
2023/07/28 12:03:29;;;;;;;5.97;4.20;;;25.40;99.90;;;;;;5051486;28;20060;-76
2023/07/28 12:06:15;;;;;;;6.05;4.57;;;25.50;99.90;;;;;;5051724;28;20187;-77
2023/07/28 12:09:08;;;;;;;6.88;4.45;;;25.50;99.90;;;;;;5051878;28;20480;-76
2023/07/28 12:11:56;;;;;;;7.85;3.63;;;25.90;99.90;;;;;;5051764;28;20052;-77
2023/07/28 12:14:42;;;;;;;6.32;4.53;;;26.00;99.90;;;;;;5052362;28;20049;-75
2023/07/28 12:17:29;;;;;;;6.22;4.32;;;26.00;99.90;;;;;;5050809;28;20508;-76
2023/07/28 12:20:15;;;;;;;6.43;4.15;;;25.90;99.90;;;;;;5029878;28;20061;-77
2023/07/28 12:23:02;;;;;;;5.57;3.72;;;25.80;99.90;;;;;;5031231;28;20123;-77
2023/07/28 12:25:50;;;;;;;5.65;3.90;;;26.00;99.90;;;;;;5030561;28;20085;-77
2023/07/28 12:28:36;;;;;;;6.70;3.35;;;26.20;99.90;;;;;;5029423;28;20076;-76
2023/07/28 12:31:22;;;;;;;8.73;4.18;;;26.80;99.90;;;;;;5031927;28;20396;-77
2023/07/28 12:34:08;;;;;;;6.75;3.50;;;27.20;99.90;;;;;;5030661;28;20064;-77
2023/07/28 12:36:55;;;;;;;9.05;3.65;;;27.50;99.90;;;;;;5030327;28;20136;-77
2023/07/28 12:39:41;;;;;;;6.47;3.45;;;27.30;99.90;;;;;;5030695;28;20049;-78
2023/07/28 12:42:27;;;;;;;6.63;4.10;;;27.10;99.90;;;;;;5031331;28;20054;-76
2023/07/28 12:45:15;;;;;;;6.75;3.30;;;27.10;99.90;;;;;;5029999;28;20115;-77
2023/07/28 12:48:01;;;;;;;7.75;2.67;;;27.30;99.90;;;;;;5029212;28;20049;-77
2023/07/28 12:50:47;;;;;;;4.28;2.67;;;28.00;99.90;;;;;;5030659;28;20042;-77
2023/07/28 12:53:34;;;;;;;4.57;2.20;;;28.00;99.90;;;;;;5030919;28;20565;-77
2023/07/28 12:56:21;;;;;;;5.38;2.38;;;28.50;99.90;;;;;;5030758;28;20286;-76
2023/07/28 12:59:07;;;;;;;3.70;1.98;;;28.40;99.90;;;;;;5030514;28;20393;-77
2023/07/28 13:01:53;;;;;;;3.65;2.08;;;28.90;99.90;;;;;;5030500;28;20049;-77
2023/07/28 13:04:39;;;;;;;3.50;1.67;;;28.90;99.90;;;;;;5030626;28;20057;-76
2023/07/28 13:07:25;;;;;;;4.25;1.90;;;28.80;99.90;;;;;;5031751;28;20054;-77
2023/07/28 13:10:12;;;;;;;4.95;2.53;;;28.40;99.90;;;;;;5029117;28;20049;-77
2023/07/28 13:12:58;;;;;;;3.25;1.42;;;28.00;99.90;;;;;;5029828;28;20061;-77
2023/07/28 13:15:44;;;;;;;4.28;1.90;;;28.10;99.90;;;;;;5030941;28;20053;-78
2023/07/28 13:18:31;;;;;;;4.47;1.80;;;28.30;99.90;;;;;;5032105;28;20102;-77
2023/07/28 13:21:17;;;;;;;3.95;1.48;;;28.40;99.90;;;;;;5050438;28;20048;-77
2023/07/28 13:24:03;;;;;;;5.05;1.65;;;29.00;99.90;;;;;;5050759;28;20164;-77
2023/07/28 13:26:49;;;;;;;3.03;1.50;;;29.10;99.20;;;;;;5033343;28;20543;-77
2023/07/28 13:29:35;;;;;;;4.10;1.42;;;28.70;99.30;;;;;;5049695;28;20052;-77
2023/07/28 13:32:25;;;;;;;6.57;2.03;;;28.50;99.30;;;;;;5053492;28;20080;-77
2023/07/28 13:35:12;;;;;;;4.60;1.63;;;27.90;98.70;;;;;;5054423;28;20044;-76
2023/07/28 13:37:58;;;;;;;5.20;1.80;;;27.80;99.90;;;;;;5053763;28;20092;-77
2023/07/28 13:40:44;;;;;;;5.30;1.83;;;27.90;99.90;;;;;;5055195;28;20045;-77
2023/07/28 13:43:30;;;;;;;5.22;1.95;;;28.30;99.90;;;;;;5053967;28;20157;-77
2023/07/28 13:46:16;;;;;;;6.55;2.60;;;28.50;99.70;;;;;;5036821;28;20414;-77
2023/07/28 13:49:03;;;;;;;2.53;1.35;;;29.00;99.00;;;;;;5053673;28;20786;-77
2023/07/28 13:51:49;;;;;;;6.95;1.98;;;29.20;97.90;;;;;;5054061;28;20049;-76
2023/07/28 13:54:35;;;;;;;4.47;1.83;;;29.40;97.80;;;;;;5054557;28;20037;-77
2023/07/28 13:57:21;;;;;;;4.88;1.45;;;30.00;96.90;;;;;;5036447;28;20137;-77
2023/07/28 14:00:10;;;;;;;2.78;1.23;;;30.20;96.20;;;;;;5053636;28;20045;-77
2023/07/28 14:02:56;;;;;;;6.93;1.85;;;30.80;96.40;;;;;;5039728;28;20053;-77
2023/07/28 14:05:42;;;;;;;2.53;1.23;;;30.90;94.90;;;;;;5036759;28;20484;-76
2023/07/28 14:08:28;;;;;;;3.60;1.13;;;31.40;94.60;;;;;;5053794;28;20056;-77
2023/07/28 14:11:14;;;;;;;3.03;1.10;;;31.60;93.80;;;;;;5036492;28;20476;-77
2023/07/28 14:14:01;;;;;;;2.80;1.10;;;31.80;93.80;;;;;;5053120;28;20556;-77
2023/07/28 14:16:47;;;;;;;2.05;0.85;;;31.90;93.00;;;;;;5053461;28;20085;-77
2023/07/28 14:19:33;;;;;;;2.47;1.02;;;31.60;92.90;;;;;;5052824;28;20056;-78